SLRI/RIB METAR and TAF weather

Enter ICAO airport designator
Station Type Date Time Source
SLRI METAR 2021/03/02 23:00 UTC NOAA

SLRI 022300Z 06005KT 9999 SCT008 FEW020CB BKN200 25/24 Q1007


Station Type Date Time Source
SLRI Decoded METAR 2021/03/02 23:00 UTC NOAA

Riberalta, Bolivia (SLRI) 11-00S 066-07W
Mar 02, 2021 - 06:00 PM EST / 2021.03.02 2300 UTC
Wind: from the ENE (060 degrees) at 6 MPH (5 KT):0
Visibility: greater than 7 mile(s):0
Sky conditions: mostly cloudy
Weather: Cumulonimbus clouds observed
Temperature: 77 F (25 C)
Dew Point: 75 F (24 C)
Relative Humidity: 94%
Pressure (altimeter): 29.74 in. Hg (1007 hPa)
ob: SLRI 022300Z 06005KT 9999 SCT008 FEW020CB BKN200 25/24 Q1007
cycle: 23

Station Type Date Time Source
SLRI TAF 2015/11/18 00:29 UTC NOAA

TAF SLRI 182200Z 1900/1924 00000KT 9999 FEW015 TX37/1919Z TN23/1910Z
BECMG 1912/1914 33011KT SCT020
TEMPO 1919/1922 8000 VCSH FEW020 FEW023CB BKN080

Example: see airport list